sensor_id;sensor_type;location;lat;lon;timestamp;temperature;humidity
20376;DHT22;10347;51.828;6.466;2022-08-27T00:01:25;21.00;99.90
20376;DHT22;10347;51.828;6.466;2022-08-27T00:03:53;21.00;99.90
20376;DHT22;10347;51.828;6.466;2022-08-27T00:06:21;21.00;99.90
20376;DHT22;10347;51.828;6.466;2022-08-27T00:08:48;21.00;99.90
20376;DHT22;10347;51.828;6.466;2022-08-27T00:11:15;21.00;99.90
20376;DHT22;10347;51.828;6.466;2022-08-27T00:13:41;21.00;99.90
20376;DHT22;10347;51.828;6.466;2022-08-27T00:16:09;21.00;99.90
20376;DHT22;10347;51.828;6.466;2022-08-27T00:18:36;21.00;99.90
20376;DHT22;10347;51.828;6.466;2022-08-27T00:21:02;21.00;99.90
20376;DHT22;10347;51.828;6.466;2022-08-27T00:23:28;21.00;99.90
20376;DHT22;10347;51.828;6.466;2022-08-27T00:25:54;21.00;99.90
20376;DHT22;10347;51.828;6.466;2022-08-27T00:28:20;21.00;99.90
20376;DHT22;10347;51.828;6.466;2022-08-27T00:30:46;20.90;99.90
20376;DHT22;10347;51.828;6.466;2022-08-27T00:33:11;21.00;99.90
20376;DHT22;10347;51.828;6.466;2022-08-27T00:35:37;21.00;99.90
20376;DHT22;10347;51.828;6.466;2022-08-27T00:38:04;21.00;99.90
20376;DHT22;10347;51.828;6.466;2022-08-27T00:40:30;21.00;99.90
20376;DHT22;10347;51.828;6.466;2022-08-27T00:42:58;21.00;99.90
20376;DHT22;10347;51.828;6.466;2022-08-27T00:45:26;20.90;99.90
20376;DHT22;10347;51.828;6.466;2022-08-27T00:47:54;20.90;99.90
20376;DHT22;10347;51.828;6.466;2022-08-27T00:50:31;21.00;99.90
20376;DHT22;10347;51.828;6.466;2022-08-27T00:53:00;20.90;99.90
20376;DHT22;10347;51.828;6.466;2022-08-27T00:55:31;21.00;99.90
20376;DHT22;10347;51.828;6.466;2022-08-27T00:58:30;20.90;99.90
20376;DHT22;10347;51.828;6.466;2022-08-27T01:00:54;20.90;99.90
20376;DHT22;10347;51.828;6.466;2022-08-27T01:03:20;20.90;99.90
20376;DHT22;10347;51.828;6.466;2022-08-27T01:05:48;20.80;99.90
20376;DHT22;10347;51.828;6.466;2022-08-27T01:08:19;20.80;99.90
20376;DHT22;10347;51.828;6.466;2022-08-27T01:10:45;20.80;99.90
20376;DHT22;10347;51.828;6.466;2022-08-27T01:13:14;20.80;99.90
20376;DHT22;10347;51.828;6.466;2022-08-27T01:15:41;20.80;99.90
20376;DHT22;10347;51.828;6.466;2022-08-27T01:18:08;20.90;99.90
20376;DHT22;10347;51.828;6.466;2022-08-27T01:20:55;20.90;99.90
20376;DHT22;10347;51.828;6.466;2022-08-27T01:26:20;20.80;99.90
20376;DHT22;10347;51.828;6.466;2022-08-27T01:28:47;20.80;99.90
20376;DHT22;10347;51.828;6.466;2022-08-27T01:31:13;20.80;99.90
20376;DHT22;10347;51.828;6.466;2022-08-27T01:33:39;20.80;99.90
20376;DHT22;10347;51.828;6.466;2022-08-27T01:36:06;20.80;99.90
20376;DHT22;10347;51.828;6.466;2022-08-27T01:38:32;20.80;99.90
20376;DHT22;10347;51.828;6.466;2022-08-27T01:40:59;20.80;99.90
20376;DHT22;10347;51.828;6.466;2022-08-27T01:43:25;20.80;99.90
20376;DHT22;10347;51.828;6.466;2022-08-27T01:45:51;20.80;99.90
20376;DHT22;10347;51.828;6.466;2022-08-27T01:48:18;20.70;99.90
20376;DHT22;10347;51.828;6.466;2022-08-27T01:50:45;20.70;99.90
20376;DHT22;10347;51.828;6.466;2022-08-27T01:53:19;20.70;99.90
20376;DHT22;10347;51.828;6.466;2022-08-27T01:55:46;20.60;99.90
20376;DHT22;10347;51.828;6.466;2022-08-27T01:58:13;20.60;99.90
20376;DHT22;10347;51.828;6.466;2022-08-27T02:00:42;20.70;99.90
20376;DHT22;10347;51.828;6.466;2022-08-27T02:03:10;20.70;99.90
20376;DHT22;10347;51.828;6.466;2022-08-27T02:05:37;20.60;99.90
20376;DHT22;10347;51.828;6.466;2022-08-27T02:08:06;20.60;99.90
20376;DHT22;10347;51.828;6.466;2022-08-27T02:10:34;20.60;99.90
20376;DHT22;10347;51.828;6.466;2022-08-27T02:13:01;20.70;99.90
20376;DHT22;10347;51.828;6.466;2022-08-27T02:15:28;20.60;99.90
20376;DHT22;10347;51.828;6.466;2022-08-27T02:17:54;20.60;99.90
20376;DHT22;10347;51.828;6.466;2022-08-27T02:20:21;20.60;99.90
20376;DHT22;10347;51.828;6.466;2022-08-27T02:22:47;20.60;99.90
20376;DHT22;10347;51.828;6.466;2022-08-27T02:25:13;20.60;99.90
20376;DHT22;10347;51.828;6.466;2022-08-27T02:27:41;20.60;99.90
20376;DHT22;10347;51.828;6.466;2022-08-27T02:30:09;20.60;99.90
20376;DHT22;10347;51.828;6.466;2022-08-27T02:32:35;20.60;99.90
20376;DHT22;10347;51.828;6.466;2022-08-27T02:35:00;20.60;99.90
20376;DHT22;10347;51.828;6.466;2022-08-27T02:37:28;20.60;99.90
20376;DHT22;10347;51.828;6.466;2022-08-27T02:39:54;20.60;99.90
20376;DHT22;10347;51.828;6.466;2022-08-27T02:42:20;20.50;99.90
20376;DHT22;10347;51.828;6.466;2022-08-27T02:44:45;20.50;99.90
20376;DHT22;10347;51.828;6.466;2022-08-27T02:47:11;20.50;99.90
20376;DHT22;10347;51.828;6.466;2022-08-27T02:49:38;20.50;99.90
20376;DHT22;10347;51.828;6.466;2022-08-27T02:52:04;20.50;99.90
20376;DHT22;10347;51.828;6.466;2022-08-27T02:54:29;20.50;99.90
20376;DHT22;10347;51.828;6.466;2022-08-27T02:56:55;20.50;99.90
20376;DHT22;10347;51.828;6.466;2022-08-27T02:59:21;20.50;99.90
20376;DHT22;10347;51.828;6.466;2022-08-27T03:01:47;20.50;99.90
20376;DHT22;10347;51.828;6.466;2022-08-27T03:04:13;20.50;99.90
20376;DHT22;10347;51.828;6.466;2022-08-27T03:06:39;20.50;99.90
20376;DHT22;10347;51.828;6.466;2022-08-27T03:09:05;20.50;99.90
20376;DHT22;10347;51.828;6.466;2022-08-27T03:11:30;20.40;99.90
20376;DHT22;10347;51.828;6.466;2022-08-27T03:13:57;20.40;99.90
20376;DHT22;10347;51.828;6.466;2022-08-27T03:16:23;20.50;99.90
20376;DHT22;10347;51.828;6.466;2022-08-27T03:18:49;20.50;99.90
20376;DHT22;10347;51.828;6.466;2022-08-27T03:21:22;20.50;99.90
20376;DHT22;10347;51.828;6.466;2022-08-27T03:23:49;20.50;99.90
20376;DHT22;10347;51.828;6.466;2022-08-27T03:26:16;20.40;99.90
20376;DHT22;10347;51.828;6.466;2022-08-27T03:28:42;20.40;99.90
20376;DHT22;10347;51.828;6.466;2022-08-27T03:31:15;20.40;99.90
20376;DHT22;10347;51.828;6.466;2022-08-27T03:33:41;20.40;99.90
20376;DHT22;10347;51.828;6.466;2022-08-27T03:36:08;20.40;99.90
20376;DHT22;10347;51.828;6.466;2022-08-27T03:38:34;20.30;99.90
20376;DHT22;10347;51.828;6.466;2022-08-27T03:41:01;20.30;99.90
20376;DHT22;10347;51.828;6.466;2022-08-27T03:43:27;20.30;99.90
20376;DHT22;10347;51.828;6.466;2022-08-27T03:45:53;20.30;99.90
20376;DHT22;10347;51.828;6.466;2022-08-27T03:48:19;20.30;99.90
20376;DHT22;10347;51.828;6.466;2022-08-27T03:50:48;20.30;99.90
20376;DHT22;10347;51.828;6.466;2022-08-27T03:53:15;20.30;99.90
20376;DHT22;10347;51.828;6.466;2022-08-27T03:55:41;20.30;99.90
20376;DHT22;10347;51.828;6.466;2022-08-27T03:58:08;20.20;99.90
20376;DHT22;10347;51.828;6.466;2022-08-27T04:00:35;20.20;99.90
20376;DHT22;10347;51.828;6.466;2022-08-27T04:03:00;20.10;99.90
20376;DHT22;10347;51.828;6.466;2022-08-27T04:05:26;20.10;99.90
20376;DHT22;10347;51.828;6.466;2022-08-27T04:07:52;20.10;99.90
20376;DHT22;10347;51.828;6.466;2022-08-27T04:10:17;20.10;99.90
20376;DHT22;10347;51.828;6.466;2022-08-27T04:12:43;20.10;99.90
20376;DHT22;10347;51.828;6.466;2022-08-27T04:15:10;20.10;99.90
20376;DHT22;10347;51.828;6.466;2022-08-27T04:17:37;20.10;99.90
20376;DHT22;10347;51.828;6.466;2022-08-27T04:20:04;20.00;99.90
20376;DHT22;10347;51.828;6.466;2022-08-27T04:22:30;20.10;99.90
20376;DHT22;10347;51.828;6.466;2022-08-27T04:24:55;20.10;99.90
20376;DHT22;10347;51.828;6.466;2022-08-27T04:27:21;20.10;99.90
20376;DHT22;10347;51.828;6.466;2022-08-27T04:29:53;20.10;99.90
20376;DHT22;10347;51.828;6.466;2022-08-27T04:32:19;20.10;99.90
20376;DHT22;10347;51.828;6.466;2022-08-27T04:34:44;20.10;99.90
20376;DHT22;10347;51.828;6.466;2022-08-27T04:37:10;20.10;99.90
20376;DHT22;10347;51.828;6.466;2022-08-27T04:39:35;20.00;99.90
20376;DHT22;10347;51.828;6.466;2022-08-27T04:42:01;20.10;99.90
20376;DHT22;10347;51.828;6.466;2022-08-27T04:44:29;20.10;99.90
20376;DHT22;10347;51.828;6.466;2022-08-27T04:46:58;20.10;99.90
20376;DHT22;10347;51.828;6.466;2022-08-27T04:49:25;20.00;99.90
20376;DHT22;10347;51.828;6.466;2022-08-27T04:51:51;20.00;99.90
20376;DHT22;10347;51.828;6.466;2022-08-27T04:54:17;20.10;99.90
20376;DHT22;10347;51.828;6.466;2022-08-27T04:56:43;20.00;99.90
20376;DHT22;10347;51.828;6.466;2022-08-27T04:59:09;20.00;99.90
20376;DHT22;10347;51.828;6.466;2022-08-27T05:01:37;20.10;99.90
20376;DHT22;10347;51.828;6.466;2022-08-27T05:04:02;20.00;99.90
20376;DHT22;10347;51.828;6.466;2022-08-27T05:06:28;20.00;99.90
20376;DHT22;10347;51.828;6.466;2022-08-27T05:08:55;19.90;99.90
20376;DHT22;10347;51.828;6.466;2022-08-27T05:11:22;19.90;99.90
20376;DHT22;10347;51.828;6.466;2022-08-27T05:13:48;19.90;99.90
20376;DHT22;10347;51.828;6.466;2022-08-27T05:16:17;19.90;99.90
20376;DHT22;10347;51.828;6.466;2022-08-27T05:18:43;19.90;99.90
20376;DHT22;10347;51.828;6.466;2022-08-27T05:21:25;19.90;99.90
20376;DHT22;10347;51.828;6.466;2022-08-27T05:23:51;19.90;99.90
20376;DHT22;10347;51.828;6.466;2022-08-27T05:26:19;19.90;99.90
20376;DHT22;10347;51.828;6.466;2022-08-27T05:28:44;19.90;99.90
20376;DHT22;10347;51.828;6.466;2022-08-27T05:31:12;19.90;99.90
20376;DHT22;10347;51.828;6.466;2022-08-27T05:33:39;19.90;99.90
20376;DHT22;10347;51.828;6.466;2022-08-27T05:36:05;19.90;99.90
20376;DHT22;10347;51.828;6.466;2022-08-27T05:38:32;19.80;99.90
20376;DHT22;10347;51.828;6.466;2022-08-27T05:43:31;19.90;99.90
20376;DHT22;10347;51.828;6.466;2022-08-27T05:45:57;19.90;99.90
20376;DHT22;10347;51.828;6.466;2022-08-27T05:48:22;19.90;99.90
20376;DHT22;10347;51.828;6.466;2022-08-27T05:50:48;19.90;99.90
20376;DHT22;10347;51.828;6.466;2022-08-27T05:53:13;19.90;99.90
20376;DHT22;10347;51.828;6.466;2022-08-27T05:55:41;19.90;99.90
20376;DHT22;10347;51.828;6.466;2022-08-27T05:58:08;19.90;99.90
20376;DHT22;10347;51.828;6.466;2022-08-27T06:00:55;19.80;99.90
20376;DHT22;10347;51.828;6.466;2022-08-27T06:03:34;19.80;99.90
20376;DHT22;10347;51.828;6.466;2022-08-27T06:08:27;19.80;99.90
20376;DHT22;10347;51.828;6.466;2022-08-27T06:10:52;19.80;99.90
20376;DHT22;10347;51.828;6.466;2022-08-27T06:13:18;19.80;99.90
20376;DHT22;10347;51.828;6.466;2022-08-27T06:15:43;19.80;99.90
20376;DHT22;10347;51.828;6.466;2022-08-27T06:18:09;19.80;99.90
20376;DHT22;10347;51.828;6.466;2022-08-27T06:20:34;19.80;99.90
20376;DHT22;10347;51.828;6.466;2022-08-27T06:23:00;19.80;99.90
20376;DHT22;10347;51.828;6.466;2022-08-27T06:25:26;19.80;99.90
20376;DHT22;10347;51.828;6.466;2022-08-27T06:27:51;19.80;99.90
20376;DHT22;10347;51.828;6.466;2022-08-27T06:30:17;19.80;99.90
20376;DHT22;10347;51.828;6.466;2022-08-27T06:32:42;19.80;99.90
20376;DHT22;10347;51.828;6.466;2022-08-27T06:35:08;19.80;99.90
20376;DHT22;10347;51.828;6.466;2022-08-27T06:37:33;19.80;99.90
20376;DHT22;10347;51.828;6.466;2022-08-27T06:39:59;19.80;99.90
20376;DHT22;10347;51.828;6.466;2022-08-27T06:42:25;19.80;99.90
20376;DHT22;10347;51.828;6.466;2022-08-27T06:44:50;19.80;99.90
20376;DHT22;10347;51.828;6.466;2022-08-27T06:47:16;19.80;99.90
20376;DHT22;10347;51.828;6.466;2022-08-27T06:49:42;19.80;99.90
20376;DHT22;10347;51.828;6.466;2022-08-27T06:52:07;19.80;99.90
20376;DHT22;10347;51.828;6.466;2022-08-27T06:54:34;19.70;99.90
20376;DHT22;10347;51.828;6.466;2022-08-27T06:56:59;19.70;99.90
20376;DHT22;10347;51.828;6.466;2022-08-27T06:59:25;19.70;99.90
20376;DHT22;10347;51.828;6.466;2022-08-27T07:01:51;19.70;99.90
20376;DHT22;10347;51.828;6.466;2022-08-27T07:04:20;19.70;99.90
20376;DHT22;10347;51.828;6.466;2022-08-27T07:06:46;19.70;99.90
20376;DHT22;10347;51.828;6.466;2022-08-27T07:09:12;19.70;99.90
20376;DHT22;10347;51.828;6.466;2022-08-27T07:11:38;19.70;99.90
20376;DHT22;10347;51.828;6.466;2022-08-27T07:14:05;19.70;99.90
20376;DHT22;10347;51.828;6.466;2022-08-27T07:16:31;19.70;99.90
20376;DHT22;10347;51.828;6.466;2022-08-27T07:18:59;19.70;99.90
20376;DHT22;10347;51.828;6.466;2022-08-27T07:21:26;19.80;99.90
20376;DHT22;10347;51.828;6.466;2022-08-27T07:23:53;19.70;99.90
20376;DHT22;10347;51.828;6.466;2022-08-27T07:26:20;19.80;99.90
20376;DHT22;10347;51.828;6.466;2022-08-27T07:28:48;19.90;99.90
20376;DHT22;10347;51.828;6.466;2022-08-27T07:31:17;19.90;99.90
20376;DHT22;10347;51.828;6.466;2022-08-27T07:33:43;19.90;99.90
20376;DHT22;10347;51.828;6.466;2022-08-27T07:36:09;19.90;99.90
20376;DHT22;10347;51.828;6.466;2022-08-27T07:38:36;19.90;99.90
20376;DHT22;10347;51.828;6.466;2022-08-27T07:41:10;19.90;99.90
20376;DHT22;10347;51.828;6.466;2022-08-27T07:43:36;19.90;99.90
20376;DHT22;10347;51.828;6.466;2022-08-27T07:46:21;20.00;99.90
20376;DHT22;10347;51.828;6.466;2022-08-27T07:48:47;20.00;99.90
20376;DHT22;10347;51.828;6.466;2022-08-27T07:51:15;20.00;99.90
20376;DHT22;10347;51.828;6.466;2022-08-27T07:53:42;20.00;99.90
20376;DHT22;10347;51.828;6.466;2022-08-27T07:56:08;20.10;99.90
20376;DHT22;10347;51.828;6.466;2022-08-27T07:58:34;20.10;99.90
20376;DHT22;10347;51.828;6.466;2022-08-27T08:01:01;20.20;99.90
20376;DHT22;10347;51.828;6.466;2022-08-27T08:03:27;20.20;99.90
20376;DHT22;10347;51.828;6.466;2022-08-27T08:05:53;20.20;99.90
20376;DHT22;10347;51.828;6.466;2022-08-27T08:08:20;20.20;99.90
20376;DHT22;10347;51.828;6.466;2022-08-27T08:10:46;20.20;99.90
20376;DHT22;10347;51.828;6.466;2022-08-27T08:13:13;20.30;99.90
20376;DHT22;10347;51.828;6.466;2022-08-27T08:15:39;20.30;99.90
20376;DHT22;10347;51.828;6.466;2022-08-27T08:18:05;20.40;99.90
20376;DHT22;10347;51.828;6.466;2022-08-27T08:20:31;20.40;99.90
20376;DHT22;10347;51.828;6.466;2022-08-27T08:22:57;20.50;99.90
20376;DHT22;10347;51.828;6.466;2022-08-27T08:25:23;20.50;99.90
20376;DHT22;10347;51.828;6.466;2022-08-27T08:27:48;20.60;99.90
20376;DHT22;10347;51.828;6.466;2022-08-27T08:30:14;20.60;99.90
20376;DHT22;10347;51.828;6.466;2022-08-27T08:32:40;20.70;99.90
20376;DHT22;10347;51.828;6.466;2022-08-27T08:35:08;20.70;99.90
20376;DHT22;10347;51.828;6.466;2022-08-27T08:37:34;20.80;99.90
20376;DHT22;10347;51.828;6.466;2022-08-27T08:40:00;20.80;99.90
20376;DHT22;10347;51.828;6.466;2022-08-27T08:42:41;20.90;99.90
20376;DHT22;10347;51.828;6.466;2022-08-27T08:45:09;21.00;99.90
20376;DHT22;10347;51.828;6.466;2022-08-27T08:47:51;21.00;99.90
20376;DHT22;10347;51.828;6.466;2022-08-27T08:50:29;21.00;99.90
20376;DHT22;10347;51.828;6.466;2022-08-27T08:56:07;21.10;99.90
20376;DHT22;10347;51.828;6.466;2022-08-27T08:58:54;21.20;99.90
20376;DHT22;10347;51.828;6.466;2022-08-27T09:01:21;21.20;99.90
20376;DHT22;10347;51.828;6.466;2022-08-27T09:03:58;21.30;99.90
20376;DHT22;10347;51.828;6.466;2022-08-27T09:06:44;21.30;99.90
20376;DHT22;10347;51.828;6.466;2022-08-27T09:12:04;21.50;99.90
20376;DHT22;10347;51.828;6.466;2022-08-27T09:16:59;21.50;99.90
20376;DHT22;10347;51.828;6.466;2022-08-27T09:19:26;21.50;99.90
20376;DHT22;10347;51.828;6.466;2022-08-27T09:27:33;21.50;99.90
20376;DHT22;10347;51.828;6.466;2022-08-27T09:30:07;21.50;99.90
20376;DHT22;10347;51.828;6.466;2022-08-27T09:32:33;21.60;99.90
20376;DHT22;10347;51.828;6.466;2022-08-27T09:35:02;21.60;99.90
20376;DHT22;10347;51.828;6.466;2022-08-27T09:37:31;21.70;99.90
20376;DHT22;10347;51.828;6.466;2022-08-27T09:40:16;21.80;99.90
20376;DHT22;10347;51.828;6.466;2022-08-27T09:42:49;21.90;99.90
20376;DHT22;10347;51.828;6.466;2022-08-27T09:45:28;22.00;99.90
20376;DHT22;10347;51.828;6.466;2022-08-27T09:48:01;22.00;99.90
20376;DHT22;10347;51.828;6.466;2022-08-27T09:50:37;22.00;99.90
20376;DHT22;10347;51.828;6.466;2022-08-27T09:53:04;22.00;99.90
20376;DHT22;10347;51.828;6.466;2022-08-27T09:55:46;22.10;99.90
20376;DHT22;10347;51.828;6.466;2022-08-27T09:58:25;22.10;99.90
20376;DHT22;10347;51.828;6.466;2022-08-27T10:01:05;22.10;99.90
20376;DHT22;10347;51.828;6.466;2022-08-27T10:03:32;22.10;99.90
20376;DHT22;10347;51.828;6.466;2022-08-27T10:05:58;22.10;99.90
20376;DHT22;10347;51.828;6.466;2022-08-27T10:11:19;22.20;99.90
20376;DHT22;10347;51.828;6.466;2022-08-27T10:13:56;22.20;99.90
20376;DHT22;10347;51.828;6.466;2022-08-27T10:22:09;22.40;99.90
20376;DHT22;10347;51.828;6.466;2022-08-27T10:27:41;22.50;99.90
20376;DHT22;10347;51.828;6.466;2022-08-27T10:30:15;22.60;99.90
20376;DHT22;10347;51.828;6.466;2022-08-27T10:32:44;22.50;99.90
20376;DHT22;10347;51.828;6.466;2022-08-27T10:35:16;22.60;99.90
20376;DHT22;10347;51.828;6.466;2022-08-27T10:38:13;22.50;99.90
20376;DHT22;10347;51.828;6.466;2022-08-27T10:40:47;22.60;99.90
20376;DHT22;10347;51.828;6.466;2022-08-27T10:43:58;22.70;99.90
20376;DHT22;10347;51.828;6.466;2022-08-27T11:00:13;23.00;99.90
20376;DHT22;10347;51.828;6.466;2022-08-27T11:02:44;23.10;99.90
20376;DHT22;10347;51.828;6.466;2022-08-27T11:05:18;23.20;99.90
20376;DHT22;10347;51.828;6.466;2022-08-27T11:08:37;23.20;99.90
20376;DHT22;10347;51.828;6.466;2022-08-27T11:10:41;23.40;99.90
20376;DHT22;10347;51.828;6.466;2022-08-27T11:13:14;23.40;99.90
20376;DHT22;10347;51.828;6.466;2022-08-27T11:15:44;23.50;99.90
20376;DHT22;10347;51.828;6.466;2022-08-27T11:19:02;23.50;99.90
20376;DHT22;10347;51.828;6.466;2022-08-27T11:21:30;23.50;99.90
20376;DHT22;10347;51.828;6.466;2022-08-27T11:26:56;23.40;99.90
20376;DHT22;10347;51.828;6.466;2022-08-27T11:29:29;23.50;99.90
20376;DHT22;10347;51.828;6.466;2022-08-27T11:32:20;23.50;99.90
20376;DHT22;10347;51.828;6.466;2022-08-27T11:34:47;23.50;99.90
20376;DHT22;10347;51.828;6.466;2022-08-27T11:37:21;23.50;99.90
20376;DHT22;10347;51.828;6.466;2022-08-27T11:42:36;23.60;99.90
20376;DHT22;10347;51.828;6.466;2022-08-27T11:45:14;23.70;99.90
20376;DHT22;10347;51.828;6.466;2022-08-27T11:47:51;23.70;99.90
20376;DHT22;10347;51.828;6.466;2022-08-27T11:50:19;23.70;99.90
20376;DHT22;10347;51.828;6.466;2022-08-27T11:52:59;23.80;99.90
20376;DHT22;10347;51.828;6.466;2022-08-27T11:55:30;23.90;99.90
20376;DHT22;10347;51.828;6.466;2022-08-27T12:00:44;24.10;99.90
20376;DHT22;10347;51.828;6.466;2022-08-27T12:11:16;24.20;99.90
20376;DHT22;10347;51.828;6.466;2022-08-27T12:16:47;24.20;99.90
20376;DHT22;10347;51.828;6.466;2022-08-27T12:19:42;24.20;99.90
20376;DHT22;10347;51.828;6.466;2022-08-27T12:24:42;24.20;99.90
20376;DHT22;10347;51.828;6.466;2022-08-27T12:29:51;24.30;99.90
20376;DHT22;10347;51.828;6.466;2022-08-27T12:32:37;24.30;99.90
20376;DHT22;10347;51.828;6.466;2022-08-27T12:35:09;24.30;99.90
20376;DHT22;10347;51.828;6.466;2022-08-27T12:37:48;24.30;99.90
20376;DHT22;10347;51.828;6.466;2022-08-27T12:40:24;24.30;99.90
20376;DHT22;10347;51.828;6.466;2022-08-27T12:43:04;24.30;99.90
20376;DHT22;10347;51.828;6.466;2022-08-27T12:45:30;24.30;99.90
20376;DHT22;10347;51.828;6.466;2022-08-27T12:47:56;24.20;99.90
20376;DHT22;10347;51.828;6.466;2022-08-27T12:50:27;24.20;99.90
20376;DHT22;10347;51.828;6.466;2022-08-27T12:53:46;24.20;99.90
20376;DHT22;10347;51.828;6.466;2022-08-27T13:01:47;24.20;99.90
20376;DHT22;10347;51.828;6.466;2022-08-27T13:04:25;24.20;99.90
20376;DHT22;10347;51.828;6.466;2022-08-27T13:06:51;24.20;99.90
20376;DHT22;10347;51.828;6.466;2022-08-27T13:09:27;24.20;99.90
20376;DHT22;10347;51.828;6.466;2022-08-27T13:11:52;24.20;99.90
20376;DHT22;10347;51.828;6.466;2022-08-27T13:14:22;24.20;99.90
20376;DHT22;10347;51.828;6.466;2022-08-27T13:19:27;24.40;99.90
20376;DHT22;10347;51.828;6.466;2022-08-27T13:21:54;24.40;99.90
20376;DHT22;10347;51.828;6.466;2022-08-27T13:24:33;24.40;99.90
20376;DHT22;10347;51.828;6.466;2022-08-27T13:27:00;24.50;99.90
20376;DHT22;10347;51.828;6.466;2022-08-27T13:29:26;24.50;99.90
20376;DHT22;10347;51.828;6.466;2022-08-27T13:31:53;24.60;99.90
20376;DHT22;10347;51.828;6.466;2022-08-27T13:34:25;24.60;99.90
20376;DHT22;10347;51.828;6.466;2022-08-27T13:37:05;24.50;99.90
20376;DHT22;10347;51.828;6.466;2022-08-27T13:39:35;24.50;99.90
20376;DHT22;10347;51.828;6.466;2022-08-27T13:42:02;24.60;99.90
20376;DHT22;10347;51.828;6.466;2022-08-27T13:44:32;24.60;99.90
20376;DHT22;10347;51.828;6.466;2022-08-27T13:47:05;24.60;99.90
20376;DHT22;10347;51.828;6.466;2022-08-27T13:49:35;24.70;99.90
20376;DHT22;10347;51.828;6.466;2022-08-27T13:52:24;24.80;99.90
20376;DHT22;10347;51.828;6.466;2022-08-27T13:55:09;24.70;99.60
20376;DHT22;10347;51.828;6.466;2022-08-27T13:57:45;24.60;99.90
20376;DHT22;10347;51.828;6.466;2022-08-27T14:02:42;24.70;99.90
20376;DHT22;10347;51.828;6.466;2022-08-27T14:05:14;24.70;99.90
20376;DHT22;10347;51.828;6.466;2022-08-27T14:07:45;24.70;99.90
20376;DHT22;10347;51.828;6.466;2022-08-27T14:12:53;24.80;99.90
20376;DHT22;10347;51.828;6.466;2022-08-27T14:18:00;24.80;99.90
20376;DHT22;10347;51.828;6.466;2022-08-27T14:20:26;24.80;99.90
20376;DHT22;10347;51.828;6.466;2022-08-27T14:22:52;24.80;99.90
20376;DHT22;10347;51.828;6.466;2022-08-27T14:25:18;24.80;99.90
20376;DHT22;10347;51.828;6.466;2022-08-27T14:27:45;24.80;99.70
20376;DHT22;10347;51.828;6.466;2022-08-27T14:30:16;24.80;99.80
20376;DHT22;10347;51.828;6.466;2022-08-27T14:32:42;24.80;99.50
20376;DHT22;10347;51.828;6.466;2022-08-27T14:35:09;24.80;99.60
20376;DHT22;10347;51.828;6.466;2022-08-27T14:37:38;24.80;99.50
20376;DHT22;10347;51.828;6.466;2022-08-27T14:40:05;24.80;99.50
20376;DHT22;10347;51.828;6.466;2022-08-27T14:42:31;24.80;99.60
20376;DHT22;10347;51.828;6.466;2022-08-27T14:44:56;24.80;99.90
20376;DHT22;10347;51.828;6.466;2022-08-27T14:47:22;24.70;99.90
20376;DHT22;10347;51.828;6.466;2022-08-27T14:49:48;24.60;99.90
20376;DHT22;10347;51.828;6.466;2022-08-27T14:52:14;24.60;99.90
20376;DHT22;10347;51.828;6.466;2022-08-27T14:54:40;24.60;99.90
20376;DHT22;10347;51.828;6.466;2022-08-27T14:57:07;24.60;99.90
20376;DHT22;10347;51.828;6.466;2022-08-27T14:59:34;24.60;99.90
20376;DHT22;10347;51.828;6.466;2022-08-27T15:02:03;24.60;99.90
20376;DHT22;10347;51.828;6.466;2022-08-27T15:04:29;24.60;99.90
20376;DHT22;10347;51.828;6.466;2022-08-27T15:06:56;24.60;99.90
20376;DHT22;10347;51.828;6.466;2022-08-27T15:09:22;24.60;99.90
20376;DHT22;10347;51.828;6.466;2022-08-27T15:11:48;24.50;99.90
20376;DHT22;10347;51.828;6.466;2022-08-27T15:14:30;24.50;99.90
20376;DHT22;10347;51.828;6.466;2022-08-27T15:16:56;24.50;99.90
20376;DHT22;10347;51.828;6.466;2022-08-27T15:19:23;24.50;99.90
20376;DHT22;10347;51.828;6.466;2022-08-27T15:21:50;24.60;99.90
20376;DHT22;10347;51.828;6.466;2022-08-27T15:24:20;24.50;99.90
20376;DHT22;10347;51.828;6.466;2022-08-27T15:26:50;24.50;99.90
20376;DHT22;10347;51.828;6.466;2022-08-27T15:29:17;24.50;99.90
20376;DHT22;10347;51.828;6.466;2022-08-27T15:31:43;24.50;99.90
20376;DHT22;10347;51.828;6.466;2022-08-27T15:34:09;24.50;99.90
20376;DHT22;10347;51.828;6.466;2022-08-27T15:36:36;24.50;99.90
20376;DHT22;10347;51.828;6.466;2022-08-27T15:39:02;24.50;99.90
20376;DHT22;10347;51.828;6.466;2022-08-27T15:41:28;24.50;99.90
20376;DHT22;10347;51.828;6.466;2022-08-27T15:43:53;24.50;99.90
20376;DHT22;10347;51.828;6.466;2022-08-27T15:46:19;24.50;99.90
20376;DHT22;10347;51.828;6.466;2022-08-27T15:48:46;24.50;99.90
20376;DHT22;10347;51.828;6.466;2022-08-27T15:51:12;24.40;99.90
20376;DHT22;10347;51.828;6.466;2022-08-27T15:53:40;24.40;99.90
20376;DHT22;10347;51.828;6.466;2022-08-27T15:56:07;24.40;99.90
20376;DHT22;10347;51.828;6.466;2022-08-27T15:58:34;24.40;99.90
20376;DHT22;10347;51.828;6.466;2022-08-27T16:01:17;24.40;99.90
20376;DHT22;10347;51.828;6.466;2022-08-27T16:03:45;24.40;99.90
20376;DHT22;10347;51.828;6.466;2022-08-27T16:06:12;24.40;99.90
20376;DHT22;10347;51.828;6.466;2022-08-27T16:08:37;24.40;99.90
20376;DHT22;10347;51.828;6.466;2022-08-27T16:11:03;24.40;99.90
20376;DHT22;10347;51.828;6.466;2022-08-27T16:13:29;24.40;99.90
20376;DHT22;10347;51.828;6.466;2022-08-27T16:15:55;24.40;99.90
20376;DHT22;10347;51.828;6.466;2022-08-27T16:18:28;24.40;99.90
20376;DHT22;10347;51.828;6.466;2022-08-27T16:20:56;24.30;99.90
20376;DHT22;10347;51.828;6.466;2022-08-27T16:23:24;24.30;99.90
20376;DHT22;10347;51.828;6.466;2022-08-27T16:25:53;24.40;99.90
20376;DHT22;10347;51.828;6.466;2022-08-27T16:28:19;24.30;99.90
20376;DHT22;10347;51.828;6.466;2022-08-27T16:30:44;24.30;99.90
20376;DHT22;10347;51.828;6.466;2022-08-27T16:33:10;24.30;99.90
20376;DHT22;10347;51.828;6.466;2022-08-27T16:35:37;24.20;99.90
20376;DHT22;10347;51.828;6.466;2022-08-27T16:38:03;24.20;99.90
20376;DHT22;10347;51.828;6.466;2022-08-27T16:40:29;24.20;99.90
20376;DHT22;10347;51.828;6.466;2022-08-27T16:42:55;24.20;99.90
20376;DHT22;10347;51.828;6.466;2022-08-27T16:45:22;24.20;99.90
20376;DHT22;10347;51.828;6.466;2022-08-27T16:47:48;24.20;99.90
20376;DHT22;10347;51.828;6.466;2022-08-27T16:50:33;24.10;99.90
20376;DHT22;10347;51.828;6.466;2022-08-27T16:53:14;24.10;99.90
20376;DHT22;10347;51.828;6.466;2022-08-27T16:55:41;24.00;99.90
20376;DHT22;10347;51.828;6.466;2022-08-27T16:58:20;24.00;99.90
20376;DHT22;10347;51.828;6.466;2022-08-27T17:00:50;24.00;99.90
20376;DHT22;10347;51.828;6.466;2022-08-27T17:03:17;24.00;99.90
20376;DHT22;10347;51.828;6.466;2022-08-27T17:05:44;24.00;99.90
20376;DHT22;10347;51.828;6.466;2022-08-27T17:08:09;23.90;99.90
20376;DHT22;10347;51.828;6.466;2022-08-27T17:10:40;23.90;99.90